• Join FlightAware (Why Join?)
  • Login
  • US Flag 
05:47AM EDT


 

Airport Tracker/Info


-or-


 

Live Flight TrackerFlight Track Log ✈ EJA982 ✈ 21-Apr-2013 ✈ KMRY - KONT

Flight Track Log - Related Links

Times and Time Zones

All times are in EDT time to prevent confusion due to time zone crossing. See the EJA982 flight status page for this flight to view local times or setup timezone preferences in your user account.

Time Position Orientation Groundspeed Altitude Reporting Facility
EDT Latitude Longitude Course Direction KTS MPH feet Rate Location/Type
10:40AM 36.6000 -121.8667 332° Northwest 190 219 1,600  Level Northern Cal TRACON
10:41AM 36.6500 -121.9000 332° Northwest 256 295 6,000 2,700 Climbing Northern Cal TRACON
10:42AM 36.7333 -121.9167 351° North 277 319 7,000 480 Climbing Northern Cal TRACON
10:43AM 36.7500 -121.8500 73° East 287 330 7,000 720 Level Northern Cal TRACON
10:44AM 36.7167 -121.7667 116° Southeast 272 313 8,500 1,500 Climbing Northern Cal TRACON
10:46AM 36.6086 -121.5908 127° Southeast 316 364 11,500 1,980 Climbing Los Angeles Center
10:47AM 36.5472 -121.4856 126° Southeast 364 419 14,500 2,640 Climbing Los Angeles Center
10:48AM 36.4814 -121.3750 127° Southeast 392 451 16,900 2,160 Climbing Los Angeles Center
10:49AM 36.4144 -121.2581 125° Southeast 407 468 18,900 960 Climbing Los Angeles Center
10:50AM 36.3400 -121.1303 126° Southeast 451 519 19,000 900 Climbing Oakland Center
10:51AM 36.2619 -120.9978 126° Southeast 474 545 20,900 1,980 Climbing Oakland Center
10:52AM 36.1861 -120.8689 126° Southeast 464 534 23,100 2,100 Climbing Oakland Center
10:53AM 36.1094 -120.7406 126° Southeast 464 534 25,200 1,860 Climbing Oakland Center
10:54AM 36.0142 -120.5839 127° Southeast 472 543 27,000 600 Climbing Oakland Center
10:56AM 35.8581 -120.3239 126° Southeast 524 603 27,000  Level Los Angeles Center
10:57AM 35.7494 -120.1472 127° Southeast 533 613 27,000  Level Oakland Center
10:58AM 35.6586 -119.9964 127° Southeast 539 620 27,000  Level Oakland Center
10:59AM 35.5806 -119.8364 121° Southeast 543 625 27,000  Level Oakland Center
11:00AM 35.5067 -119.6756 119° Southeast 537 618 27,000  Level Oakland Center
11:01AM 35.4286 -119.5206 122° Southeast 533 613 27,000  Level Oakland Center
11:02AM 35.3458 -119.3700 124° Southeast 531 611 27,000  Level Oakland Center
11:03AM 35.2625 -119.2183 124° Southeast 533 613 27,000  Level Oakland Center
11:04AM 35.1828 -119.0675 123° Southeast 531 611 27,000  Level Oakland Center
11:05AM 35.1028 -118.9158 123° Southeast 532 612 27,000  Level Los Angeles Center
11:06AM 35.0203 -118.7661 124° Southeast 532 612 27,000  Level Los Angeles Center
11:07AM 34.9372 -118.6164 124° Southeast 533 613 27,000  Level Los Angeles Center
11:08AM 34.8536 -118.4642 124° Southeast 535 616 27,000  Level Los Angeles Center
11:09AM 34.7703 -118.3150 124° Southeast 535 616 27,000 -1,320 Level Los Angeles Center
11:10AM 34.6708 -118.1375 124° Southeast 535 616 24,400 -2,760 Descending Los Angeles Center
11:11AM 34.5964 -117.9933 122° Southeast 516 594 21,400 -2,580 Descending Los Angeles Center
11:12AM 34.5328 -117.8517 119° Southeast 488 562 19,100 -1,980 Descending Los Angeles Center
11:13AM 34.4819 -117.7397 119° Southeast 482 555 17,400 -2,100 Descending Los Angeles Center
11:14AM 34.4086 -117.5792 119° Southeast 462 532 14,800 -2,400 Descending Los Angeles Center
11:15AM 34.3436 -117.4403 120° Southeast 419 482 12,600 -2,040 Descending Los Angeles Center
11:16AM 34.2658 -117.3656 142° Southeast 351 404 10,700 -1,320 Descending Los Angeles Center
11:17AM 34.1967 -117.3133 148° Southeast 305 351 10,000 -1,200 Descending Los Angeles Center
11:18AM 34.1206 -117.3175 183° South 270 311 8,300 -2,220 Descending Los Angeles Center
11:19AM 34.1000 -117.3333 213° Southwest 269 310 7,100 -2,820 Descending Southern California TRACON
11:20AM 34.0667 -117.3833 231° Southwest 251 289 5,000 -1,920 Descending Southern California TRACON
11:21AM 34.0500 -117.4667 256° West 206 237 3,500 -1,380 Descending Southern California TRACON
11:21AM 34.0500 -117.5167 270° West 182 209 2,400 -1,200 Descending Southern California TRACON
11:23AM 34.0500 -117.5833 270° West 133 153 1,100 -1,140 Descending Southern California TRACON
11:25AM 34.0500 -117.6000 North  Level FlightAware Approximate
11:32AM 34.0560 -117.6012 North  Level Estimated